sensor_id;sensor_type;location;lat;lon;timestamp;temperature;humidity
19588;DHT22;9940;47.252;8.696;2023-04-03T00:00:36;10.00;99.90
19588;DHT22;9940;47.252;8.696;2023-04-03T00:03:04;10.00;99.90
19588;DHT22;9940;47.252;8.696;2023-04-03T00:05:30;10.00;99.90
19588;DHT22;9940;47.252;8.696;2023-04-03T00:07:58;10.00;99.90
19588;DHT22;9940;47.252;8.696;2023-04-03T00:10:27;10.00;99.90
19588;DHT22;9940;47.252;8.696;2023-04-03T00:12:55;10.00;99.90
19588;DHT22;9940;47.252;8.696;2023-04-03T00:15:21;10.00;99.90
19588;DHT22;9940;47.252;8.696;2023-04-03T00:17:52;9.90;99.90
19588;DHT22;9940;47.252;8.696;2023-04-03T00:20:17;9.90;99.90
19588;DHT22;9940;47.252;8.696;2023-04-03T00:22:43;9.90;99.90
19588;DHT22;9940;47.252;8.696;2023-04-03T00:25:09;9.90;99.90
19588;DHT22;9940;47.252;8.696;2023-04-03T00:27:37;9.80;99.90
19588;DHT22;9940;47.252;8.696;2023-04-03T00:30:03;9.80;99.90
19588;DHT22;9940;47.252;8.696;2023-04-03T00:32:29;9.80;99.90
19588;DHT22;9940;47.252;8.696;2023-04-03T00:34:55;9.80;99.90
19588;DHT22;9940;47.252;8.696;2023-04-03T00:37:20;9.70;99.90
19588;DHT22;9940;47.252;8.696;2023-04-03T00:39:46;9.70;99.90
19588;DHT22;9940;47.252;8.696;2023-04-03T00:42:12;9.60;99.90
19588;DHT22;9940;47.252;8.696;2023-04-03T00:56:58;9.30;99.90
19588;DHT22;9940;47.252;8.696;2023-04-03T00:59:30;9.20;99.90
19588;DHT22;9940;47.252;8.696;2023-04-03T01:01:59;9.20;99.90
19588;DHT22;9940;47.252;8.696;2023-04-03T01:07:03;9.10;99.90
19588;DHT22;9940;47.252;8.696;2023-04-03T01:09:30;9.10;99.90
19588;DHT22;9940;47.252;8.696;2023-04-03T01:14:44;9.00;99.90
19588;DHT22;9940;47.252;8.696;2023-04-03T01:25:16;9.00;99.90
19588;DHT22;9940;47.252;8.696;2023-04-03T01:27:44;8.90;99.90
19588;DHT22;9940;47.252;8.696;2023-04-03T01:30:16;8.90;99.90
19588;DHT22;9940;47.252;8.696;2023-04-03T01:32:43;8.90;99.90
19588;DHT22;9940;47.252;8.696;2023-04-03T01:35:11;8.90;99.90
19588;DHT22;9940;47.252;8.696;2023-04-03T01:37:39;8.90;99.90
19588;DHT22;9940;47.252;8.696;2023-04-03T01:40:05;8.80;99.90
19588;DHT22;9940;47.252;8.696;2023-04-03T01:42:32;8.80;99.90
19588;DHT22;9940;47.252;8.696;2023-04-03T01:45:00;8.80;99.90
19588;DHT22;9940;47.252;8.696;2023-04-03T01:47:25;8.70;99.90
19588;DHT22;9940;47.252;8.696;2023-04-03T01:49:58;8.70;99.90
19588;DHT22;9940;47.252;8.696;2023-04-03T01:52:26;8.70;99.90
19588;DHT22;9940;47.252;8.696;2023-04-03T01:54:52;8.70;99.90
19588;DHT22;9940;47.252;8.696;2023-04-03T01:57:22;8.70;99.90
19588;DHT22;9940;47.252;8.696;2023-04-03T01:59:50;8.70;99.90
19588;DHT22;9940;47.252;8.696;2023-04-03T02:02:18;8.60;99.90
19588;DHT22;9940;47.252;8.696;2023-04-03T02:04:45;8.60;99.90
19588;DHT22;9940;47.252;8.696;2023-04-03T02:07:11;8.60;99.90
19588;DHT22;9940;47.252;8.696;2023-04-03T02:09:37;8.60;99.90
19588;DHT22;9940;47.252;8.696;2023-04-03T02:12:05;8.70;99.90
19588;DHT22;9940;47.252;8.696;2023-04-03T02:14:33;8.70;99.90
19588;DHT22;9940;47.252;8.696;2023-04-03T02:17:04;8.70;99.90
19588;DHT22;9940;47.252;8.696;2023-04-03T02:19:34;8.70;99.90
19588;DHT22;9940;47.252;8.696;2023-04-03T02:22:03;8.70;99.90
19588;DHT22;9940;47.252;8.696;2023-04-03T02:24:32;8.70;99.90
19588;DHT22;9940;47.252;8.696;2023-04-03T02:27:00;8.70;99.90
19588;DHT22;9940;47.252;8.696;2023-04-03T02:29:26;8.70;99.90
19588;DHT22;9940;47.252;8.696;2023-04-03T02:31:54;8.70;99.90
19588;DHT22;9940;47.252;8.696;2023-04-03T02:34:19;8.70;99.90
19588;DHT22;9940;47.252;8.696;2023-04-03T02:36:47;8.70;99.90
19588;DHT22;9940;47.252;8.696;2023-04-03T02:39:13;8.70;99.90
19588;DHT22;9940;47.252;8.696;2023-04-03T02:41:41;8.70;99.90
19588;DHT22;9940;47.252;8.696;2023-04-03T02:44:12;8.70;99.90
19588;DHT22;9940;47.252;8.696;2023-04-03T02:46:40;8.60;99.90
19588;DHT22;9940;47.252;8.696;2023-04-03T02:49:05;8.60;99.90
19588;DHT22;9940;47.252;8.696;2023-04-03T02:51:31;8.60;99.90
19588;DHT22;9940;47.252;8.696;2023-04-03T02:53:57;8.60;99.90
19588;DHT22;9940;47.252;8.696;2023-04-03T02:56:23;8.60;99.90
19588;DHT22;9940;47.252;8.696;2023-04-03T02:58:48;8.50;99.90
19588;DHT22;9940;47.252;8.696;2023-04-03T03:01:14;8.50;99.90
19588;DHT22;9940;47.252;8.696;2023-04-03T03:03:40;8.50;99.90
19588;DHT22;9940;47.252;8.696;2023-04-03T03:06:08;8.50;99.90
19588;DHT22;9940;47.252;8.696;2023-04-03T03:08:35;8.50;99.90
19588;DHT22;9940;47.252;8.696;2023-04-03T03:11:01;8.50;99.90
19588;DHT22;9940;47.252;8.696;2023-04-03T03:13:32;8.40;99.90
19588;DHT22;9940;47.252;8.696;2023-04-03T03:16:01;8.40;99.90
19588;DHT22;9940;47.252;8.696;2023-04-03T03:18:29;8.40;99.90
19588;DHT22;9940;47.252;8.696;2023-04-03T03:20:56;8.40;99.90
19588;DHT22;9940;47.252;8.696;2023-04-03T03:23:24;8.40;99.90
19588;DHT22;9940;47.252;8.696;2023-04-03T03:26:04;8.40;99.90
19588;DHT22;9940;47.252;8.696;2023-04-03T03:28:32;8.40;99.90
19588;DHT22;9940;47.252;8.696;2023-04-03T03:30:59;8.30;99.90
19588;DHT22;9940;47.252;8.696;2023-04-03T03:33:25;8.30;99.90
19588;DHT22;9940;47.252;8.696;2023-04-03T03:35:54;8.30;99.90
19588;DHT22;9940;47.252;8.696;2023-04-03T03:38:20;8.30;99.90
19588;DHT22;9940;47.252;8.696;2023-04-03T03:40:50;8.20;99.90
19588;DHT22;9940;47.252;8.696;2023-04-03T03:43:19;8.20;99.90
19588;DHT22;9940;47.252;8.696;2023-04-03T03:45:49;8.20;99.90
19588;DHT22;9940;47.252;8.696;2023-04-03T03:48:15;8.10;99.90
19588;DHT22;9940;47.252;8.696;2023-04-03T03:50:41;8.10;99.90
19588;DHT22;9940;47.252;8.696;2023-04-03T03:53:09;8.00;99.90
19588;DHT22;9940;47.252;8.696;2023-04-03T03:55:37;8.00;99.90
19588;DHT22;9940;47.252;8.696;2023-04-03T03:58:03;8.00;99.90
19588;DHT22;9940;47.252;8.696;2023-04-03T04:00:29;7.90;99.90
19588;DHT22;9940;47.252;8.696;2023-04-03T04:02:55;7.80;99.60
19588;DHT22;9940;47.252;8.696;2023-04-03T04:05:23;7.80;99.40
19588;DHT22;9940;47.252;8.696;2023-04-03T04:07:49;7.80;99.30
19588;DHT22;9940;47.252;8.696;2023-04-03T04:10:17;7.70;99.30
19588;DHT22;9940;47.252;8.696;2023-04-03T04:12:45;7.70;99.50
19588;DHT22;9940;47.252;8.696;2023-04-03T04:15:11;7.70;99.40
19588;DHT22;9940;47.252;8.696;2023-04-03T04:17:37;7.70;99.30
19588;DHT22;9940;47.252;8.696;2023-04-03T04:20:05;7.60;99.20
19588;DHT22;9940;47.252;8.696;2023-04-03T04:22:31;7.60;99.10
19588;DHT22;9940;47.252;8.696;2023-04-03T04:24:56;7.60;99.00
19588;DHT22;9940;47.252;8.696;2023-04-03T04:27:22;7.60;98.80
19588;DHT22;9940;47.252;8.696;2023-04-03T04:29:48;7.60;98.60
19588;DHT22;9940;47.252;8.696;2023-04-03T04:32:16;7.60;98.50
19588;DHT22;9940;47.252;8.696;2023-04-03T04:34:41;7.50;98.30
19588;DHT22;9940;47.252;8.696;2023-04-03T04:37:07;7.50;98.20
19588;DHT22;9940;47.252;8.696;2023-04-03T04:39:35;7.50;98.10
19588;DHT22;9940;47.252;8.696;2023-04-03T04:42:03;7.50;98.00
19588;DHT22;9940;47.252;8.696;2023-04-03T04:44:28;7.40;97.90
19588;DHT22;9940;47.252;8.696;2023-04-03T04:46:54;7.40;97.80
19588;DHT22;9940;47.252;8.696;2023-04-03T04:49:22;7.40;97.60
19588;DHT22;9940;47.252;8.696;2023-04-03T04:51:48;7.40;97.50
19588;DHT22;9940;47.252;8.696;2023-04-03T04:54:13;7.40;97.20
19588;DHT22;9940;47.252;8.696;2023-04-03T04:56:39;7.40;96.90
19588;DHT22;9940;47.252;8.696;2023-04-03T04:59:05;7.30;96.60
19588;DHT22;9940;47.252;8.696;2023-04-03T05:01:30;7.30;96.40
19588;DHT22;9940;47.252;8.696;2023-04-03T05:03:58;7.30;96.30
19588;DHT22;9940;47.252;8.696;2023-04-03T05:06:26;7.20;96.00
19588;DHT22;9940;47.252;8.696;2023-04-03T05:08:52;7.20;95.80
19588;DHT22;9940;47.252;8.696;2023-04-03T05:11:17;7.20;95.60
19588;DHT22;9940;47.252;8.696;2023-04-03T05:13:48;7.20;95.30
19588;DHT22;9940;47.252;8.696;2023-04-03T05:16:16;7.20;95.00
19588;DHT22;9940;47.252;8.696;2023-04-03T05:18:41;7.20;94.80
19588;DHT22;9940;47.252;8.696;2023-04-03T05:21:07;7.10;94.50
19588;DHT22;9940;47.252;8.696;2023-04-03T05:23:35;7.10;94.30
19588;DHT22;9940;47.252;8.696;2023-04-03T05:26:00;7.10;94.20
19588;DHT22;9940;47.252;8.696;2023-04-03T05:28:26;7.10;94.10
19588;DHT22;9940;47.252;8.696;2023-04-03T05:30:56;7.10;94.00
19588;DHT22;9940;47.252;8.696;2023-04-03T05:33:23;7.10;93.80
19588;DHT22;9940;47.252;8.696;2023-04-03T05:35:49;7.00;93.70
19588;DHT22;9940;47.252;8.696;2023-04-03T05:38:15;7.00;93.70
19588;DHT22;9940;47.252;8.696;2023-04-03T05:40:41;7.00;93.60
19588;DHT22;9940;47.252;8.696;2023-04-03T05:43:06;7.00;93.60
19588;DHT22;9940;47.252;8.696;2023-04-03T05:45:37;7.00;93.50
19588;DHT22;9940;47.252;8.696;2023-04-03T05:48:02;7.00;93.30
19588;DHT22;9940;47.252;8.696;2023-04-03T05:50:28;7.00;93.20
19588;DHT22;9940;47.252;8.696;2023-04-03T05:52:57;7.00;93.10
19588;DHT22;9940;47.252;8.696;2023-04-03T05:55:24;7.00;92.90
19588;DHT22;9940;47.252;8.696;2023-04-03T05:57:49;7.00;92.80
19588;DHT22;9940;47.252;8.696;2023-04-03T06:00:18;7.00;92.70
19588;DHT22;9940;47.252;8.696;2023-04-03T06:02:46;7.00;92.60
19588;DHT22;9940;47.252;8.696;2023-04-03T06:05:12;7.00;92.50
19588;DHT22;9940;47.252;8.696;2023-04-03T06:07:40;6.90;92.50
19588;DHT22;9940;47.252;8.696;2023-04-03T06:10:07;6.90;92.30
19588;DHT22;9940;47.252;8.696;2023-04-03T06:12:35;6.90;92.20
19588;DHT22;9940;47.252;8.696;2023-04-03T06:15:03;6.90;92.20
19588;DHT22;9940;47.252;8.696;2023-04-03T06:17:29;6.90;92.20
19588;DHT22;9940;47.252;8.696;2023-04-03T06:19:55;6.90;92.20
19588;DHT22;9940;47.252;8.696;2023-04-03T06:22:23;6.90;92.20
19588;DHT22;9940;47.252;8.696;2023-04-03T06:24:51;6.90;92.20
19588;DHT22;9940;47.252;8.696;2023-04-03T06:27:19;6.90;92.00
19588;DHT22;9940;47.252;8.696;2023-04-03T06:29:49;6.90;92.00
19588;DHT22;9940;47.252;8.696;2023-04-03T06:32:15;6.90;91.90
19588;DHT22;9940;47.252;8.696;2023-04-03T06:34:41;6.90;91.80
19588;DHT22;9940;47.252;8.696;2023-04-03T06:37:14;6.90;91.80
19588;DHT22;9940;47.252;8.696;2023-04-03T06:39:40;6.90;91.60
19588;DHT22;9940;47.252;8.696;2023-04-03T06:42:07;6.90;91.60
19588;DHT22;9940;47.252;8.696;2023-04-03T06:44:32;6.90;91.50
19588;DHT22;9940;47.252;8.696;2023-04-03T06:47:01;6.90;91.40
19588;DHT22;9940;47.252;8.696;2023-04-03T06:49:31;6.90;91.30
19588;DHT22;9940;47.252;8.696;2023-04-03T06:51:57;6.90;91.30
19588;DHT22;9940;47.252;8.696;2023-04-03T06:54:23;6.90;91.20
19588;DHT22;9940;47.252;8.696;2023-04-03T06:56:48;6.90;91.20
19588;DHT22;9940;47.252;8.696;2023-04-03T06:59:15;6.90;91.00
19588;DHT22;9940;47.252;8.696;2023-04-03T07:01:41;7.00;90.90
19588;DHT22;9940;47.252;8.696;2023-04-03T07:04:07;7.00;90.80
19588;DHT22;9940;47.252;8.696;2023-04-03T07:06:34;7.00;90.80
19588;DHT22;9940;47.252;8.696;2023-04-03T07:09:00;7.00;91.00
19588;DHT22;9940;47.252;8.696;2023-04-03T07:11:28;7.10;90.50
19588;DHT22;9940;47.252;8.696;2023-04-03T07:13:54;7.20;90.30
19588;DHT22;9940;47.252;8.696;2023-04-03T07:16:20;7.20;90.20
19588;DHT22;9940;47.252;8.696;2023-04-03T07:18:46;7.10;90.20
19588;DHT22;9940;47.252;8.696;2023-04-03T07:21:12;7.20;90.50
19588;DHT22;9940;47.252;8.696;2023-04-03T07:23:40;7.20;90.10
19588;DHT22;9940;47.252;8.696;2023-04-03T07:26:08;7.20;90.10
19588;DHT22;9940;47.252;8.696;2023-04-03T07:28:34;7.30;90.00
19588;DHT22;9940;47.252;8.696;2023-04-03T07:31:06;7.30;89.60
19588;DHT22;9940;47.252;8.696;2023-04-03T07:33:34;7.40;89.40
19588;DHT22;9940;47.252;8.696;2023-04-03T07:36:00;7.40;89.00
19588;DHT22;9940;47.252;8.696;2023-04-03T07:38:26;7.50;88.70
19588;DHT22;9940;47.252;8.696;2023-04-03T07:40:52;7.60;88.40
19588;DHT22;9940;47.252;8.696;2023-04-03T07:43:21;7.70;88.10
19588;DHT22;9940;47.252;8.696;2023-04-03T07:45:48;7.70;87.60
19588;DHT22;9940;47.252;8.696;2023-04-03T07:48:17;7.80;87.30
19588;DHT22;9940;47.252;8.696;2023-04-03T07:50:43;7.80;87.00
19588;DHT22;9940;47.252;8.696;2023-04-03T07:53:10;7.90;86.80
19588;DHT22;9940;47.252;8.696;2023-04-03T07:55:36;8.00;86.70
19588;DHT22;9940;47.252;8.696;2023-04-03T07:58:11;8.00;86.50
19588;DHT22;9940;47.252;8.696;2023-04-03T08:00:40;8.00;86.30
19588;DHT22;9940;47.252;8.696;2023-04-03T08:03:07;8.10;86.20
19588;DHT22;9940;47.252;8.696;2023-04-03T08:05:37;8.10;86.10
19588;DHT22;9940;47.252;8.696;2023-04-03T08:08:06;8.10;86.10
19588;DHT22;9940;47.252;8.696;2023-04-03T08:10:35;8.10;86.00
19588;DHT22;9940;47.252;8.696;2023-04-03T08:13:01;8.20;86.00
19588;DHT22;9940;47.252;8.696;2023-04-03T08:15:32;8.20;85.70
19588;DHT22;9940;47.252;8.696;2023-04-03T08:17:59;8.20;85.40
19588;DHT22;9940;47.252;8.696;2023-04-03T08:20:26;8.20;85.20
19588;DHT22;9940;47.252;8.696;2023-04-03T08:22:54;8.20;85.00
19588;DHT22;9940;47.252;8.696;2023-04-03T08:25:20;8.20;84.90
19588;DHT22;9940;47.252;8.696;2023-04-03T08:27:48;8.20;84.90
19588;DHT22;9940;47.252;8.696;2023-04-03T08:30:14;8.20;84.80
19588;DHT22;9940;47.252;8.696;2023-04-03T08:32:39;8.20;84.60
19588;DHT22;9940;47.252;8.696;2023-04-03T08:35:07;8.20;84.30
19588;DHT22;9940;47.252;8.696;2023-04-03T08:37:39;8.30;84.20
19588;DHT22;9940;47.252;8.696;2023-04-03T08:40:11;8.30;84.70
19588;DHT22;9940;47.252;8.696;2023-04-03T08:43:11;8.30;83.70
19588;DHT22;9940;47.252;8.696;2023-04-03T08:48:19;8.30;83.40
19588;DHT22;9940;47.252;8.696;2023-04-03T08:50:49;8.20;83.10
19588;DHT22;9940;47.252;8.696;2023-04-03T08:53:19;8.20;83.10
19588;DHT22;9940;47.252;8.696;2023-04-03T08:55:48;8.20;82.80
19588;DHT22;9940;47.252;8.696;2023-04-03T08:58:15;8.20;82.60
19588;DHT22;9940;47.252;8.696;2023-04-03T09:03:21;8.20;82.30
19588;DHT22;9940;47.252;8.696;2023-04-03T09:10:50;8.20;82.00
19588;DHT22;9940;47.252;8.696;2023-04-03T09:19:41;8.20;81.30
19588;DHT22;9940;47.252;8.696;2023-04-03T09:24:39;8.30;80.70
19588;DHT22;9940;47.252;8.696;2023-04-03T09:27:10;8.30;80.50
19588;DHT22;9940;47.252;8.696;2023-04-03T09:29:43;8.40;80.30
19588;DHT22;9940;47.252;8.696;2023-04-03T09:32:28;8.50;80.00
19588;DHT22;9940;47.252;8.696;2023-04-03T09:34:57;8.50;79.50
19588;DHT22;9940;47.252;8.696;2023-04-03T09:37:38;8.50;79.20
19588;DHT22;9940;47.252;8.696;2023-04-03T09:43:19;8.60;78.40
19588;DHT22;9940;47.252;8.696;2023-04-03T09:45:47;8.60;78.20
19588;DHT22;9940;47.252;8.696;2023-04-03T09:51:04;8.70;77.50
19588;DHT22;9940;47.252;8.696;2023-04-03T09:53:40;8.80;77.00
19588;DHT22;9940;47.252;8.696;2023-04-03T09:56:20;8.90;77.40
19588;DHT22;9940;47.252;8.696;2023-04-03T09:59:11;8.90;76.30
19588;DHT22;9940;47.252;8.696;2023-04-03T10:01:42;9.00;76.10
19588;DHT22;9940;47.252;8.696;2023-04-03T10:06:38;9.10;75.70
19588;DHT22;9940;47.252;8.696;2023-04-03T10:09:19;9.10;75.40
19588;DHT22;9940;47.252;8.696;2023-04-03T10:12:09;9.20;75.40
19588;DHT22;9940;47.252;8.696;2023-04-03T10:14:54;9.20;75.10
19588;DHT22;9940;47.252;8.696;2023-04-03T10:25:17;9.40;74.30
19588;DHT22;9940;47.252;8.696;2023-04-03T10:27:55;9.40;74.30
19588;DHT22;9940;47.252;8.696;2023-04-03T10:30:36;9.40;74.20
19588;DHT22;9940;47.252;8.696;2023-04-03T10:33:31;9.50;74.10
19588;DHT22;9940;47.252;8.696;2023-04-03T10:38:33;9.40;74.70
19588;DHT22;9940;47.252;8.696;2023-04-03T10:46:56;9.40;74.10
19588;DHT22;9940;47.252;8.696;2023-04-03T10:50:00;9.40;74.00
19588;DHT22;9940;47.252;8.696;2023-04-03T10:55:43;9.60;74.10
19588;DHT22;9940;47.252;8.696;2023-04-03T11:01:06;9.70;73.60
19588;DHT22;9940;47.252;8.696;2023-04-03T11:03:36;9.70;73.60
19588;DHT22;9940;47.252;8.696;2023-04-03T11:06:10;9.70;73.60
19588;DHT22;9940;47.252;8.696;2023-04-03T11:08:44;9.70;73.50
19588;DHT22;9940;47.252;8.696;2023-04-03T11:11:18;9.70;73.50
19588;DHT22;9940;47.252;8.696;2023-04-03T11:16:47;9.70;73.00
19588;DHT22;9940;47.252;8.696;2023-04-03T11:22:15;9.70;72.50
19588;DHT22;9940;47.252;8.696;2023-04-03T11:24:51;9.80;72.20
19588;DHT22;9940;47.252;8.696;2023-04-03T11:27:21;9.80;71.90
19588;DHT22;9940;47.252;8.696;2023-04-03T11:29:52;9.80;71.70
19588;DHT22;9940;47.252;8.696;2023-04-03T11:35:04;10.00;72.20
19588;DHT22;9940;47.252;8.696;2023-04-03T11:37:38;10.00;71.30
19588;DHT22;9940;47.252;8.696;2023-04-03T11:45:59;10.20;70.90
19588;DHT22;9940;47.252;8.696;2023-04-03T11:51:00;10.30;70.70
19588;DHT22;9940;47.252;8.696;2023-04-03T11:53:33;10.30;70.60
19588;DHT22;9940;47.252;8.696;2023-04-03T12:01:46;10.50;70.00
19588;DHT22;9940;47.252;8.696;2023-04-03T12:04:16;10.50;70.00
19588;DHT22;9940;47.252;8.696;2023-04-03T12:06:51;10.60;70.00
19588;DHT22;9940;47.252;8.696;2023-04-03T12:11:59;10.70;69.60
19588;DHT22;9940;47.252;8.696;2023-04-03T12:14:28;10.70;69.40
19588;DHT22;9940;47.252;8.696;2023-04-03T12:16:55;10.80;69.30
19588;DHT22;9940;47.252;8.696;2023-04-03T12:24:41;10.80;69.30
19588;DHT22;9940;47.252;8.696;2023-04-03T12:33:03;10.60;69.00
19588;DHT22;9940;47.252;8.696;2023-04-03T12:35:36;10.40;68.80
19588;DHT22;9940;47.252;8.696;2023-04-03T12:41:39;10.30;68.80
19588;DHT22;9940;47.252;8.696;2023-04-03T12:48:38;10.40;68.40
19588;DHT22;9940;47.252;8.696;2023-04-03T12:51:05;10.40;68.30
19588;DHT22;9940;47.252;8.696;2023-04-03T12:53:38;10.40;68.10
19588;DHT22;9940;47.252;8.696;2023-04-03T12:58:53;10.50;68.00
19588;DHT22;9940;47.252;8.696;2023-04-03T13:01:22;10.60;67.90
19588;DHT22;9940;47.252;8.696;2023-04-03T13:03:54;10.70;67.80
19588;DHT22;9940;47.252;8.696;2023-04-03T13:06:21;10.70;67.80
19588;DHT22;9940;47.252;8.696;2023-04-03T13:08:59;10.80;67.80
19588;DHT22;9940;47.252;8.696;2023-04-03T13:11:30;11.00;67.40
19588;DHT22;9940;47.252;8.696;2023-04-03T13:14:04;11.10;67.10
19588;DHT22;9940;47.252;8.696;2023-04-03T13:16:33;11.10;66.80
19588;DHT22;9940;47.252;8.696;2023-04-03T13:18:59;11.10;66.80
19588;DHT22;9940;47.252;8.696;2023-04-03T13:21:32;11.10;66.90
19588;DHT22;9940;47.252;8.696;2023-04-03T13:24:02;11.00;67.00
19588;DHT22;9940;47.252;8.696;2023-04-03T13:26:31;10.90;67.30
19588;DHT22;9940;47.252;8.696;2023-04-03T13:29:05;10.80;67.50
19588;DHT22;9940;47.252;8.696;2023-04-03T13:31:39;10.70;67.60
19588;DHT22;9940;47.252;8.696;2023-04-03T13:34:11;10.70;67.80
19588;DHT22;9940;47.252;8.696;2023-04-03T13:36:40;10.60;67.80
19588;DHT22;9940;47.252;8.696;2023-04-03T13:41:55;10.50;67.70
19588;DHT22;9940;47.252;8.696;2023-04-03T13:46:58;10.50;67.80
19588;DHT22;9940;47.252;8.696;2023-04-03T13:52:29;10.50;67.60
19588;DHT22;9940;47.252;8.696;2023-04-03T13:54:59;10.50;67.60
19588;DHT22;9940;47.252;8.696;2023-04-03T13:57:27;10.50;67.50
19588;DHT22;9940;47.252;8.696;2023-04-03T13:59:53;10.50;67.50
19588;DHT22;9940;47.252;8.696;2023-04-03T14:02:41;10.40;67.30
19588;DHT22;9940;47.252;8.696;2023-04-03T14:05:09;10.40;67.40
19588;DHT22;9940;47.252;8.696;2023-04-03T14:07:37;10.30;67.50
19588;DHT22;9940;47.252;8.696;2023-04-03T14:10:08;10.30;67.50
19588;DHT22;9940;47.252;8.696;2023-04-03T14:12:36;10.30;67.60
19588;DHT22;9940;47.252;8.696;2023-04-03T14:15:06;10.30;67.60
19588;DHT22;9940;47.252;8.696;2023-04-03T14:17:35;10.30;67.60
19588;DHT22;9940;47.252;8.696;2023-04-03T14:20:03;10.30;67.60
19588;DHT22;9940;47.252;8.696;2023-04-03T14:22:32;10.20;67.70
19588;DHT22;9940;47.252;8.696;2023-04-03T14:24:59;10.10;67.80
19588;DHT22;9940;47.252;8.696;2023-04-03T14:27:45;10.10;67.90
19588;DHT22;9940;47.252;8.696;2023-04-03T14:30:27;10.10;67.90
19588;DHT22;9940;47.252;8.696;2023-04-03T14:32:53;10.10;67.90
19588;DHT22;9940;47.252;8.696;2023-04-03T14:35:20;10.10;67.80
19588;DHT22;9940;47.252;8.696;2023-04-03T14:37:52;10.10;67.80
19588;DHT22;9940;47.252;8.696;2023-04-03T14:40:24;10.10;67.80
19588;DHT22;9940;47.252;8.696;2023-04-03T14:42:50;10.10;67.80
19588;DHT22;9940;47.252;8.696;2023-04-03T14:45:16;10.10;67.80
19588;DHT22;9940;47.252;8.696;2023-04-03T14:47:53;10.00;67.70
19588;DHT22;9940;47.252;8.696;2023-04-03T14:50:25;10.00;67.70
19588;DHT22;9940;47.252;8.696;2023-04-03T14:52:53;10.00;67.70
19588;DHT22;9940;47.252;8.696;2023-04-03T14:55:23;10.00;67.70
19588;DHT22;9940;47.252;8.696;2023-04-03T14:57:49;10.00;67.70
19588;DHT22;9940;47.252;8.696;2023-04-03T15:00:20;10.00;67.70
19588;DHT22;9940;47.252;8.696;2023-04-03T15:02:46;10.00;67.60
19588;DHT22;9940;47.252;8.696;2023-04-03T15:05:13;10.00;67.70
19588;DHT22;9940;47.252;8.696;2023-04-03T15:07:52;9.90;67.60
19588;DHT22;9940;47.252;8.696;2023-04-03T15:10:19;9.90;67.60
19588;DHT22;9940;47.252;8.696;2023-04-03T15:12:48;9.80;67.60
19588;DHT22;9940;47.252;8.696;2023-04-03T15:15:16;9.80;67.60
19588;DHT22;9940;47.252;8.696;2023-04-03T15:17:43;9.70;67.70
19588;DHT22;9940;47.252;8.696;2023-04-03T15:20:20;9.70;67.70
19588;DHT22;9940;47.252;8.696;2023-04-03T15:22:46;9.60;67.60
19588;DHT22;9940;47.252;8.696;2023-04-03T15:25:12;9.60;67.60
19588;DHT22;9940;47.252;8.696;2023-04-03T15:27:38;9.50;67.60
19588;DHT22;9940;47.252;8.696;2023-04-03T15:30:14;9.50;67.70
19588;DHT22;9940;47.252;8.696;2023-04-03T15:32:40;9.40;67.60
19588;DHT22;9940;47.252;8.696;2023-04-03T15:35:06;9.30;67.60
19588;DHT22;9940;47.252;8.696;2023-04-03T15:37:32;9.30;67.60
19588;DHT22;9940;47.252;8.696;2023-04-03T15:39:58;9.30;67.70
19588;DHT22;9940;47.252;8.696;2023-04-03T15:42:23;9.20;67.60
19588;DHT22;9940;47.252;8.696;2023-04-03T15:44:49;9.20;67.70
19588;DHT22;9940;47.252;8.696;2023-04-03T15:47:17;9.20;67.80
19588;DHT22;9940;47.252;8.696;2023-04-03T15:49:43;9.20;67.70
19588;DHT22;9940;47.252;8.696;2023-04-03T15:52:11;9.10;67.70
19588;DHT22;9940;47.252;8.696;2023-04-03T15:54:37;9.10;67.70
19588;DHT22;9940;47.252;8.696;2023-04-03T15:57:03;9.10;67.70
19588;DHT22;9940;47.252;8.696;2023-04-03T15:59:28;9.10;67.60
19588;DHT22;9940;47.252;8.696;2023-04-03T16:01:56;9.00;67.60
19588;DHT22;9940;47.252;8.696;2023-04-03T16:04:22;9.00;67.70
19588;DHT22;9940;47.252;8.696;2023-04-03T16:06:49;8.90;67.70
19588;DHT22;9940;47.252;8.696;2023-04-03T16:09:15;8.90;67.70
19588;DHT22;9940;47.252;8.696;2023-04-03T16:11:43;8.90;67.70
19588;DHT22;9940;47.252;8.696;2023-04-03T16:14:11;8.80;67.70
19588;DHT22;9940;47.252;8.696;2023-04-03T16:16:37;8.80;67.70
19588;DHT22;9940;47.252;8.696;2023-04-03T16:19:05;8.80;67.80
19588;DHT22;9940;47.252;8.696;2023-04-03T16:21:36;8.70;67.80
19588;DHT22;9940;47.252;8.696;2023-04-03T16:24:02;8.70;67.90
19588;DHT22;9940;47.252;8.696;2023-04-03T16:26:28;8.70;68.00
19588;DHT22;9940;47.252;8.696;2023-04-03T16:28:56;8.70;68.00
19588;DHT22;9940;47.252;8.696;2023-04-03T16:31:22;8.60;67.90
19588;DHT22;9940;47.252;8.696;2023-04-03T16:33:50;8.60;68.00
19588;DHT22;9940;47.252;8.696;2023-04-03T16:36:18;8.60;67.90
19588;DHT22;9940;47.252;8.696;2023-04-03T16:38:44;8.50;67.90
19588;DHT22;9940;47.252;8.696;2023-04-03T16:41:10;8.50;67.90
19588;DHT22;9940;47.252;8.696;2023-04-03T16:43:36;8.40;67.90
19588;DHT22;9940;47.252;8.696;2023-04-03T16:46:04;8.40;67.90
19588;DHT22;9940;47.252;8.696;2023-04-03T16:48:30;8.40;67.90
19588;DHT22;9940;47.252;8.696;2023-04-03T16:50:56;8.40;67.90
19588;DHT22;9940;47.252;8.696;2023-04-03T16:53:23;8.40;67.90
19588;DHT22;9940;47.252;8.696;2023-04-03T16:55:49;8.40;68.00
19588;DHT22;9940;47.252;8.696;2023-04-03T16:58:15;8.40;68.00
19588;DHT22;9940;47.252;8.696;2023-04-03T17:00:44;8.40;68.00
19588;DHT22;9940;47.252;8.696;2023-04-03T17:03:15;8.30;67.90
19588;DHT22;9940;47.252;8.696;2023-04-03T17:05:45;8.30;68.00
19588;DHT22;9940;47.252;8.696;2023-04-03T17:08:11;8.30;67.90
19588;DHT22;9940;47.252;8.696;2023-04-03T17:10:39;8.20;67.90
19588;DHT22;9940;47.252;8.696;2023-04-03T17:13:04;8.20;67.90
19588;DHT22;9940;47.252;8.696;2023-04-03T17:15:30;8.20;67.90
19588;DHT22;9940;47.252;8.696;2023-04-03T17:17:58;8.20;67.90
19588;DHT22;9940;47.252;8.696;2023-04-03T17:20:26;8.10;68.00
19588;DHT22;9940;47.252;8.696;2023-04-03T17:22:52;8.10;68.00
19588;DHT22;9940;47.252;8.696;2023-04-03T17:25:19;8.10;68.10
19588;DHT22;9940;47.252;8.696;2023-04-03T17:27:44;8.10;68.20
19588;DHT22;9940;47.252;8.696;2023-04-03T17:30:10;8.10;68.20
19588;DHT22;9940;47.252;8.696;2023-04-03T17:32:36;8.00;68.30
19588;DHT22;9940;47.252;8.696;2023-04-03T17:35:05;8.00;68.30
19588;DHT22;9940;47.252;8.696;2023-04-03T17:37:31;8.00;68.20
19588;DHT22;9940;47.252;8.696;2023-04-03T17:39:57;8.00;68.20
19588;DHT22;9940;47.252;8.696;2023-04-03T17:42:24;7.90;68.20
19588;DHT22;9940;47.252;8.696;2023-04-03T17:44:50;7.90;68.30
19588;DHT22;9940;47.252;8.696;2023-04-03T17:47:16;7.90;68.30
19588;DHT22;9940;47.252;8.696;2023-04-03T17:49:41;7.90;68.30
19588;DHT22;9940;47.252;8.696;2023-04-03T17:52:07;7.90;68.40
19588;DHT22;9940;47.252;8.696;2023-04-03T17:54:33;7.80;68.40
19588;DHT22;9940;47.252;8.696;2023-04-03T17:56:58;7.80;68.50
19588;DHT22;9940;47.252;8.696;2023-04-03T17:59:28;7.80;68.70
19588;DHT22;9940;47.252;8.696;2023-04-03T18:01:54;7.80;68.90
19588;DHT22;9940;47.252;8.696;2023-04-03T18:04:21;7.80;69.00
19588;DHT22;9940;47.252;8.696;2023-04-03T18:06:51;7.70;69.10
19588;DHT22;9940;47.252;8.696;2023-04-03T18:09:20;7.70;69.30
19588;DHT22;9940;47.252;8.696;2023-04-03T18:11:49;7.70;70.10
19588;DHT22;9940;47.252;8.696;2023-04-03T18:14:22;7.80;69.50
19588;DHT22;9940;47.252;8.696;2023-04-03T18:16:48;7.80;69.60
19588;DHT22;9940;47.252;8.696;2023-04-03T18:19:14;7.80;69.70